createdAt,value
2018-11-23T00:01:32.278Z,59.13
2018-11-23T00:04:01.501Z,59.27
2018-11-23T00:06:29.727Z,56.40
2018-11-23T00:08:57.984Z,53.87
2018-11-23T00:11:26.212Z,54.10
2018-11-23T00:13:54.422Z,51.40
2018-11-23T00:16:22.616Z,54.50
2018-11-23T00:18:50.905Z,57.33
2018-11-23T00:21:19.134Z,66.10
2018-11-23T00:23:47.348Z,47.40
2018-11-23T00:26:15.601Z,55.97
2018-11-23T00:28:44.628Z,51.83
2018-11-23T00:31:12.807Z,58.57
2018-11-23T00:33:41.042Z,61.83
2018-11-23T00:36:09.284Z,53.33
2018-11-23T00:38:37.507Z,66.03
2018-11-23T00:41:05.884Z,58.47
2018-11-23T00:43:34.091Z,52.50
2018-11-23T00:46:02.688Z,59.73
2018-11-23T00:48:31.140Z,55.43
2018-11-23T00:50:59.373Z,59.37
2018-11-23T00:53:27.575Z,58.53
2018-11-23T00:55:55.779Z,60.93
2018-11-23T00:58:24.036Z,76.43
2018-11-23T01:00:52.255Z,69.77
2018-11-23T01:03:20.464Z,61.80
2018-11-23T01:05:48.659Z,74.37
2018-11-23T01:08:16.869Z,65.43
2018-11-23T01:10:45.063Z,73.53
2018-11-23T01:13:13.236Z,66.37
2018-11-23T01:15:41.491Z,74.27
2018-11-23T01:18:09.699Z,55.70
2018-11-23T01:20:37.912Z,58.40
2018-11-23T01:23:06.127Z,66.40
2018-11-23T01:25:34.331Z,67.60
2018-11-23T01:28:02.519Z,59.23
2018-11-23T01:30:31.795Z,53.83
2018-11-23T01:33:00.111Z,65.07
2018-11-23T01:35:28.436Z,59.10
2018-11-23T01:37:56.669Z,56.70
2018-11-23T01:40:26.135Z,61.47
2018-11-23T01:42:54.791Z,67.70
2018-11-23T01:45:23.025Z,52.53
2018-11-23T01:47:51.210Z,55.93
2018-11-23T01:50:20.812Z,53.97
2018-11-23T01:52:49.711Z,58.23
2018-11-23T01:55:18.851Z,57.17
2018-11-23T01:57:47.303Z,52.93
2018-11-23T02:00:19.237Z,61.10
2018-11-23T02:02:48.074Z,50.13
2018-11-23T02:05:16.391Z,63.37
2018-11-23T02:07:44.620Z,57.13
2018-11-23T02:10:13.980Z,65.43
2018-11-23T02:12:42.233Z,70.13
2018-11-23T02:15:14.212Z,74.27
2018-11-23T02:17:42.475Z,67.23
2018-11-23T02:20:11.853Z,63.63
2018-11-23T02:22:40.061Z,68.63
2018-11-23T02:25:09.056Z,64.73
2018-11-23T02:27:37.259Z,57.23
2018-11-23T02:30:12.195Z,56.10
2018-11-23T02:32:40.715Z,60.40
2018-11-23T02:35:08.911Z,65.40
2018-11-23T02:37:37.162Z,62.90
2018-11-23T02:40:05.602Z,64.60
2018-11-23T02:42:33.875Z,67.87
2018-11-23T02:45:02.220Z,73.40
2018-11-23T02:47:30.437Z,59.77
2018-11-23T02:49:58.703Z,53.30
2018-11-23T02:52:27.202Z,65.43
2018-11-23T02:54:55.823Z,53.13
2018-11-23T02:57:24.099Z,51.33
2018-11-23T02:59:52.411Z,53.10
2018-11-23T03:02:21.004Z,50.80
2018-11-23T03:04:49.228Z,48.80
2018-11-23T03:07:17.463Z,46.53
2018-11-23T03:09:45.670Z,48.30
2018-11-23T03:12:13.897Z,73.60
2018-11-23T03:14:42.157Z,58.07
2018-11-23T03:17:10.366Z,68.17
2018-11-23T03:19:38.571Z,73.67
2018-11-23T03:22:06.779Z,76.93
2018-11-23T03:24:35.020Z,59.93
2018-11-23T03:27:03.459Z,59.57
2018-11-23T03:29:33.523Z,68.47
2018-11-23T03:32:01.755Z,50.17
2018-11-23T03:34:30.463Z,48.43
2018-11-23T03:36:58.664Z,54.73
2018-11-23T03:39:30.406Z,54.07
2018-11-23T03:41:55.215Z,48.90
2018-11-23T03:44:23.432Z,45.23
2018-11-23T03:46:51.617Z,51.87
2018-11-23T03:49:19.858Z,55.27
2018-11-23T03:51:48.103Z,59.17
2018-11-23T03:54:17.436Z,58.40
2018-11-23T03:56:45.671Z,60.23
2018-11-23T03:59:14.483Z,74.37
2018-11-23T04:01:42.688Z,93.37
2018-11-23T04:04:10.946Z,74.13
2018-11-23T04:06:39.200Z,81.70
2018-11-23T04:09:09.363Z,72.27
2018-11-23T04:11:37.789Z,72.30
2018-11-23T04:14:06.070Z,85.00
2018-11-23T04:16:34.324Z,74.67
2018-11-23T04:19:02.608Z,71.47
2018-11-23T04:21:30.835Z,78.37
2018-11-23T04:23:59.444Z,68.37
2018-11-23T04:26:27.918Z,69.97
2018-11-23T04:28:56.547Z,62.03
2018-11-23T04:31:24.730Z,69.57
2018-11-23T04:33:53.219Z,72.33
2018-11-23T04:36:21.443Z,68.00
2018-11-23T04:38:49.646Z,59.37
2018-11-23T04:41:18.064Z,57.83
2018-11-23T04:43:46.441Z,52.07
2018-11-23T04:46:14.667Z,58.53
2018-11-23T04:48:42.857Z,49.77
2018-11-23T04:51:11.072Z,56.87
2018-11-23T04:53:39.593Z,48.23
2018-11-23T04:56:07.835Z,53.33
2018-11-23T04:58:36.455Z,47.20
2018-11-23T05:01:05.069Z,48.00
2018-11-23T05:03:33.285Z,48.97
2018-11-23T05:06:01.473Z,51.53
2018-11-23T05:08:29.679Z,52.07
2018-11-23T05:10:57.919Z,50.07
2018-11-23T05:13:26.939Z,55.10
2018-11-23T05:15:55.163Z,69.50
2018-11-23T05:18:25.248Z,84.77
2018-11-23T05:20:53.482Z,100.50
2018-11-23T05:23:21.717Z,109.87
2018-11-23T05:25:50.667Z,105.20
2018-11-23T05:28:19.146Z,114.60
2018-11-23T05:30:47.407Z,122.40
2018-11-23T05:33:15.663Z,101.50
2018-11-23T05:35:44.175Z,97.53
2018-11-23T05:38:12.437Z,107.43
2018-11-23T05:40:41.218Z,84.00
2018-11-23T05:43:09.655Z,92.17
2018-11-23T05:45:37.895Z,95.40
2018-11-23T05:48:06.431Z,76.23
2018-11-23T05:50:34.681Z,85.80
2018-11-23T05:53:02.935Z,71.53
2018-11-23T05:55:31.158Z,78.77
2018-11-23T05:57:59.607Z,76.53
2018-11-23T06:00:29.471Z,74.47
2018-11-23T06:02:57.684Z,73.47
2018-11-23T06:05:25.915Z,69.47
2018-11-23T06:07:54.153Z,61.97
2018-11-23T06:10:22.737Z,68.17
2018-11-23T06:12:51.311Z,60.80
2018-11-23T06:15:20.971Z,67.23
2018-11-23T06:17:49.456Z,68.93
2018-11-23T06:20:20.424Z,83.17
2018-11-23T06:22:49.491Z,97.60
2018-11-23T06:25:30.768Z,90.20
2018-11-23T06:27:59.412Z,100.77
2018-11-23T06:30:27.624Z,100.83
2018-11-23T06:33:08.067Z,87.40
2018-11-23T06:35:36.288Z,89.50
2018-11-23T06:38:04.595Z,93.80
2018-11-23T06:40:33.340Z,92.20
2018-11-23T06:43:01.707Z,89.40
2018-11-23T06:45:32.413Z,92.80
2018-11-23T06:48:00.657Z,78.93
2018-11-23T06:50:28.836Z,88.73
2018-11-23T06:52:57.377Z,87.67
2018-11-23T06:55:25.555Z,95.70
2018-11-23T06:57:53.806Z,89.20
2018-11-23T07:00:22.148Z,88.53
2018-11-23T07:02:50.373Z,98.73
2018-11-23T07:05:18.604Z,94.80
2018-11-23T07:07:46.866Z,87.73
2018-11-23T07:10:15.092Z,94.80
2018-11-23T07:12:43.359Z,88.70
2018-11-23T07:15:12.359Z,83.27
2018-11-23T07:17:41.844Z,90.47
2018-11-23T07:20:12.013Z,95.17
2018-11-23T07:22:40.767Z,81.97
2018-11-23T07:25:10.122Z,98.87
2018-11-23T07:27:39.054Z,102.27
2018-11-23T07:30:10.728Z,125.53
2018-11-23T07:32:38.929Z,120.40
2018-11-23T07:35:07.219Z,114.53
2018-11-23T07:37:36.506Z,103.47
2018-11-23T07:40:16.675Z,97.20
2018-11-23T07:42:44.942Z,96.63
2018-11-23T07:45:13.153Z,95.70
2018-11-23T07:47:41.491Z,102.60
2018-11-23T07:50:10.072Z,73.80
2018-11-23T07:52:38.282Z,72.63
2018-11-23T07:55:08.744Z,83.67
2018-11-23T07:57:36.950Z,72.97
2018-11-23T08:00:12.699Z,73.83
2018-11-23T08:02:42.039Z,66.63
2018-11-23T08:05:12.222Z,68.70
2018-11-23T08:07:40.463Z,65.53
2018-11-23T08:10:10.153Z,65.37
2018-11-23T08:12:39.204Z,58.80
2018-11-23T08:15:11.168Z,51.73
2018-11-23T08:17:40.016Z,49.47
2018-11-23T08:20:09.505Z,46.30
2018-11-23T08:22:37.724Z,43.37
2018-11-23T08:25:14.291Z,45.10
2018-11-23T08:27:43.237Z,42.27
2018-11-23T08:30:17.933Z,48.20
2018-11-23T08:32:46.236Z,39.43
2018-11-23T08:35:14.595Z,47.73
2018-11-23T08:37:44.723Z,40.80
2018-11-23T08:40:17.946Z,41.83
2018-11-23T08:42:47.100Z,42.60
2018-11-23T08:45:16.650Z,42.83
2018-11-23T08:47:44.897Z,38.93
2018-11-23T08:50:16.513Z,44.43
2018-11-23T08:52:44.803Z,39.33
2018-11-23T08:55:13.864Z,40.97
2018-11-23T08:57:42.314Z,40.60
2018-11-23T09:00:15.433Z,36.97
2018-11-23T09:02:44.647Z,45.00
2018-11-23T09:05:12.959Z,40.00
2018-11-23T09:07:41.619Z,39.80
2018-11-23T09:10:12.659Z,54.00
2018-11-23T09:12:40.910Z,45.90
2018-11-23T09:15:12.976Z,44.50
2018-11-23T09:17:41.551Z,38.67
2018-11-23T09:20:11.651Z,35.10
2018-11-23T09:22:39.904Z,37.37
2018-11-23T09:25:10.419Z,34.77
2018-11-23T09:27:38.643Z,35.77
2018-11-23T09:30:11.943Z,35.93
2018-11-23T09:32:40.242Z,34.60
2018-11-23T09:35:08.668Z,37.40
2018-11-23T09:37:37.902Z,35.60
2018-11-23T09:40:09.724Z,33.57
2018-11-23T09:42:38.391Z,34.67
2018-11-23T09:45:08.607Z,34.07
2018-11-23T09:47:36.858Z,33.83
2018-11-23T09:50:07.367Z,29.23
2018-11-23T09:52:35.951Z,30.87
2018-11-23T09:55:04.981Z,32.17
2018-11-23T09:57:33.225Z,28.77
2018-11-23T10:00:01.447Z,29.30
2018-11-23T10:02:29.715Z,31.33
2018-11-23T10:04:59.868Z,29.07
2018-11-23T10:07:28.039Z,30.83
2018-11-23T10:09:56.192Z,35.17
2018-11-23T10:12:24.375Z,34.80
2018-11-23T10:14:52.866Z,27.13
2018-11-23T10:17:21.110Z,31.77
2018-11-23T10:19:49.301Z,29.00
2018-11-23T10:22:17.815Z,29.37
2018-11-23T10:24:46.219Z,27.40
2018-11-23T10:27:14.391Z,29.37
2018-11-23T10:29:46.534Z,29.30
2018-11-23T10:32:16.196Z,28.40
2018-11-23T10:34:44.423Z,28.77
2018-11-23T10:37:13.023Z,29.87
2018-11-23T10:39:41.246Z,27.00
2018-11-23T10:42:10.033Z,25.37
2018-11-23T10:44:38.223Z,29.30
2018-11-23T10:47:06.454Z,28.17
2018-11-23T10:49:34.700Z,27.87
2018-11-23T10:52:02.920Z,29.63
2018-11-23T10:54:31.171Z,28.73
2018-11-23T10:56:59.453Z,29.83
2018-11-23T10:59:27.599Z,26.93
2018-11-23T11:02:02.086Z,31.13
2018-11-23T11:04:35.571Z,25.33
2018-11-23T11:07:06.354Z,28.73
2018-11-23T11:09:34.683Z,27.87
2018-11-23T11:12:03.180Z,24.57
2018-11-23T11:14:31.388Z,25.57
2018-11-23T11:16:59.622Z,22.87
2018-11-23T11:19:29.348Z,24.37
2018-11-23T11:21:57.599Z,27.77
2018-11-23T11:24:25.915Z,25.40
2018-11-23T11:26:54.202Z,24.37
2018-11-23T11:29:22.450Z,20.20
2018-11-23T11:31:50.884Z,22.10
2018-11-23T11:34:19.623Z,24.90
2018-11-23T11:36:48.020Z,24.67
2018-11-23T11:39:18.190Z,20.90
2018-11-23T11:41:44.564Z,20.90
2018-11-23T11:44:12.779Z,24.73
2018-11-23T11:46:41.131Z,23.03
2018-11-23T11:49:09.715Z,21.80
2018-11-23T11:51:37.929Z,23.17
2018-11-23T11:54:12.522Z,21.37
2018-11-23T11:56:40.799Z,21.90
2018-11-23T11:59:09.093Z,21.47
2018-11-23T12:01:37.336Z,21.03
2018-11-23T12:04:06.096Z,19.77
2018-11-23T12:06:34.273Z,21.23
2018-11-23T12:09:02.731Z,22.13
2018-11-23T12:11:30.976Z,20.83
2018-11-23T12:13:59.229Z,16.97
2018-11-23T12:16:27.535Z,17.30
2018-11-23T12:18:55.759Z,17.83
2018-11-23T12:21:23.996Z,16.00
2018-11-23T12:23:52.191Z,18.30
2018-11-23T12:26:20.390Z,17.27
2018-11-23T12:28:48.588Z,15.67
2018-11-23T12:31:17.872Z,16.80
2018-11-23T12:33:52.744Z,16.60
2018-11-23T12:36:21.183Z,19.47
2018-11-23T12:38:49.727Z,15.37
2018-11-23T12:41:18.009Z,18.10
2018-11-23T12:43:46.446Z,16.83
2018-11-23T12:46:14.638Z,20.23
2018-11-23T12:48:43.832Z,16.23
2018-11-23T12:51:12.137Z,16.13
2018-11-23T12:53:40.859Z,14.63
2018-11-23T13:03:10.709Z,15.00
2018-11-23T13:05:41.011Z,15.97
2018-11-23T13:08:10.313Z,16.63
2018-11-23T13:10:38.587Z,17.63
2018-11-23T13:13:07.160Z,19.40
2018-11-23T13:15:36.903Z,17.30
2018-11-23T13:18:06.180Z,18.20
2018-11-23T13:20:34.691Z,15.90
2018-11-23T13:23:05.040Z,18.60
2018-11-23T13:25:36.698Z,17.00
2018-11-23T13:28:05.104Z,16.30
2018-11-23T13:30:35.114Z,14.40
2018-11-23T13:33:03.386Z,17.27
2018-11-23T13:35:31.841Z,17.20
2018-11-23T13:38:00.100Z,15.87
2018-11-23T13:40:29.018Z,18.73
2018-11-23T13:42:58.182Z,18.87
2018-11-23T13:45:28.154Z,18.03
2018-11-23T13:47:56.457Z,17.30
2018-11-23T13:50:25.271Z,17.50
2018-11-23T13:52:55.998Z,17.70
2018-11-23T13:55:26.051Z,14.70
2018-11-23T13:57:54.368Z,20.50
2018-11-23T14:00:24.012Z,14.43
2018-11-23T14:02:52.258Z,16.20
2018-11-23T14:05:22.619Z,18.10
2018-11-23T14:07:52.218Z,18.20
2018-11-23T14:10:21.798Z,17.57
2018-11-23T14:12:50.197Z,18.87
2018-11-23T14:15:20.849Z,19.93
2018-11-23T14:17:49.915Z,18.83
2018-11-23T14:20:19.403Z,18.07
2018-11-23T14:22:47.683Z,17.10
2018-11-23T14:25:17.228Z,18.60
2018-11-23T14:27:46.089Z,19.87
2018-11-23T14:30:16.579Z,19.73
2018-11-23T14:32:44.980Z,19.23
2018-11-23T14:35:15.760Z,19.70
2018-11-23T14:37:44.652Z,21.37
2018-11-23T14:40:13.655Z,21.70
2018-11-23T14:42:42.997Z,19.13
2018-11-23T14:45:37.642Z,21.47
2018-11-23T14:48:08.736Z,21.10
2018-11-23T14:50:41.959Z,21.97
2018-11-23T14:53:10.219Z,22.23
2018-11-23T14:55:38.425Z,22.40
2018-11-23T14:58:06.579Z,25.50
2018-11-23T15:00:35.811Z,26.17
2018-11-23T15:03:05.123Z,25.07
2018-11-23T15:05:35.650Z,23.63
2018-11-23T15:08:04.738Z,23.37
2018-11-23T15:10:34.085Z,25.83
2018-11-23T15:13:03.318Z,24.27
2018-11-23T15:15:33.937Z,20.37
2018-11-23T15:18:02.747Z,25.10
2018-11-23T15:20:34.635Z,28.03
2018-11-23T15:23:04.574Z,25.07
2018-11-23T15:25:32.772Z,30.10
2018-11-23T15:28:01.196Z,30.53
2018-11-23T15:30:30.905Z,29.40
2018-11-23T15:32:59.966Z,28.17
2018-11-23T15:35:29.247Z,29.60
2018-11-23T15:37:57.476Z,27.70
2018-11-23T15:40:26.890Z,29.83
2018-11-23T15:43:00.808Z,28.20
2018-11-23T15:45:30.332Z,30.47
2018-11-23T15:47:59.175Z,30.83
2018-11-23T15:50:30.760Z,31.10
2018-11-23T15:52:59.002Z,31.67
2018-11-23T15:55:29.045Z,29.33
2018-11-23T15:57:58.820Z,31.07
2018-11-23T16:00:28.489Z,39.03
2018-11-23T16:02:56.738Z,31.73
2018-11-23T16:05:25.103Z,32.83
2018-11-23T16:07:55.419Z,34.97
2018-11-23T16:10:28.060Z,34.20
2018-11-23T16:12:57.347Z,33.80
2018-11-23T16:15:26.211Z,34.60
2018-11-23T16:17:55.115Z,31.60
2018-11-23T16:20:25.927Z,32.37
2018-11-23T16:22:55.555Z,38.90
2018-11-23T16:25:25.619Z,32.10
2018-11-23T16:27:55.583Z,31.30
2018-11-23T16:30:25.209Z,33.63
2018-11-23T16:32:54.535Z,34.50
2018-11-23T16:35:24.886Z,35.80
2018-11-23T16:37:53.840Z,32.67
2018-11-23T16:40:23.499Z,31.23
2018-11-23T16:42:52.206Z,36.70
2018-11-23T16:45:29.001Z,33.30
2018-11-23T16:47:58.558Z,32.10
2018-11-23T16:50:27.207Z,32.80
2018-11-23T16:52:56.039Z,35.20
2018-11-23T16:55:24.458Z,33.17
2018-11-23T16:57:54.084Z,33.83
2018-11-23T17:00:26.891Z,31.87
2018-11-23T17:02:56.195Z,35.20
2018-11-23T17:05:27.115Z,37.73
2018-11-23T17:07:55.528Z,36.63
2018-11-23T17:10:23.800Z,39.37
2018-11-23T17:12:52.345Z,39.53
2018-11-23T17:15:21.999Z,37.47
2018-11-23T17:17:50.225Z,39.07
2018-11-23T17:20:19.748Z,40.53
2018-11-23T17:22:50.211Z,38.10
2018-11-23T17:25:18.731Z,36.03
2018-11-23T17:27:47.176Z,38.23
2018-11-23T17:30:17.426Z,40.50
2018-11-23T17:32:45.686Z,38.10
2018-11-23T17:35:13.986Z,31.00
2018-11-23T17:37:42.482Z,38.90
2018-11-23T17:40:11.971Z,36.50
2018-11-23T17:42:40.782Z,34.87
2018-11-23T17:45:13.122Z,37.63
2018-11-23T17:47:41.402Z,37.23
2018-11-23T17:50:12.241Z,37.13
2018-11-23T17:52:41.089Z,36.40
2018-11-23T17:55:10.351Z,37.63
2018-11-23T17:57:38.811Z,35.80
2018-11-23T18:00:10.795Z,38.23
2018-11-23T18:02:39.147Z,40.93
2018-11-23T18:05:08.657Z,35.87
2018-11-23T18:07:36.887Z,36.13
2018-11-23T18:10:12.716Z,37.50
2018-11-23T18:12:42.473Z,35.00
2018-11-23T18:15:12.835Z,40.87
2018-11-23T18:17:41.152Z,37.33
2018-11-23T18:20:11.502Z,33.17
2018-11-23T18:22:40.120Z,33.53
2018-11-23T18:25:10.519Z,34.00
2018-11-23T18:27:38.735Z,33.63
2018-11-23T18:30:09.192Z,34.67
2018-11-23T18:32:37.436Z,34.20
2018-11-23T18:35:07.001Z,39.70
2018-11-23T18:37:35.226Z,37.03
2018-11-23T18:40:04.269Z,32.00
2018-11-23T18:42:32.499Z,38.97
2018-11-23T18:45:00.725Z,40.97
2018-11-23T18:47:28.959Z,37.97
2018-11-23T18:49:57.235Z,36.40
2018-11-23T18:52:25.445Z,39.50
2018-11-23T18:54:53.624Z,40.77
2018-11-23T18:57:21.871Z,40.63
2018-11-23T18:59:50.107Z,42.10
2018-11-23T19:02:18.738Z,42.87
2018-11-23T19:04:47.093Z,43.20
2018-11-23T19:07:15.252Z,44.87
2018-11-23T19:09:43.547Z,49.87
2018-11-23T19:12:11.804Z,44.13
2018-11-23T19:14:40.026Z,41.20
2018-11-23T19:17:08.264Z,46.77
2018-11-23T19:19:36.473Z,45.93
2018-11-23T19:22:05.453Z,50.13
2018-11-23T19:24:33.679Z,44.13
2018-11-23T19:27:02.143Z,45.50
2018-11-23T19:29:30.675Z,43.13
2018-11-23T19:31:58.888Z,45.93
2018-11-23T19:34:27.084Z,45.43
2018-11-23T19:36:55.261Z,43.00
2018-11-23T19:39:23.460Z,45.47
2018-11-23T19:41:51.707Z,46.83
2018-11-23T19:44:19.968Z,43.23
2018-11-23T19:46:48.255Z,44.37
2018-11-23T19:49:16.504Z,41.53
2018-11-23T19:51:44.695Z,42.37
2018-11-23T19:54:12.964Z,40.87
2018-11-23T19:56:41.191Z,35.10
2018-11-23T19:59:09.378Z,41.47
2018-11-23T20:01:37.640Z,37.50
2018-11-23T20:04:05.862Z,40.60
2018-11-23T20:06:34.055Z,41.93
2018-11-23T20:09:02.420Z,39.47
2018-11-23T20:11:30.639Z,43.03
2018-11-23T20:13:58.881Z,44.07
2018-11-23T20:16:27.128Z,46.67
2018-11-23T20:18:55.383Z,44.17
2018-11-23T20:21:23.663Z,42.40
2018-11-23T20:23:51.851Z,42.13
2018-11-23T20:26:20.074Z,41.53
2018-11-23T20:28:48.277Z,42.83
2018-11-23T20:31:16.488Z,41.17
2018-11-23T20:33:44.688Z,42.63
2018-11-23T20:36:12.898Z,46.73
2018-11-23T20:38:43.155Z,39.80
2018-11-23T20:41:11.663Z,40.90
2018-11-23T20:43:39.883Z,40.07
2018-11-23T20:46:08.261Z,43.63
2018-11-23T20:48:36.943Z,43.70
2018-11-23T20:51:05.355Z,45.70
2018-11-23T20:53:34.209Z,48.57
2018-11-23T20:56:02.488Z,44.60
2018-11-23T20:58:30.648Z,43.80
2018-11-23T21:00:58.901Z,47.10
2018-11-23T21:03:27.165Z,47.57
2018-11-23T21:05:55.403Z,49.10
2018-11-23T21:08:23.737Z,45.67
2018-11-23T21:10:52.104Z,46.57
2018-11-23T21:13:20.347Z,47.63
2018-11-23T21:15:48.535Z,56.07
2018-11-23T21:18:16.993Z,61.57
2018-11-23T21:20:45.496Z,46.33
2018-11-23T21:23:13.731Z,53.90
2018-11-23T21:25:42.035Z,50.70
2018-11-23T21:28:10.319Z,68.30
2018-11-23T21:30:38.555Z,71.17
2018-11-23T21:33:06.769Z,54.60
2018-11-23T21:35:35.097Z,44.93
2018-11-23T21:38:03.521Z,44.43
2018-11-23T21:40:31.888Z,39.50
2018-11-23T21:43:00.051Z,37.47
2018-11-23T21:45:28.380Z,38.23
2018-11-23T21:47:57.604Z,41.40
2018-11-23T21:50:25.983Z,37.23
2018-11-23T21:52:53.940Z,39.67
2018-11-23T21:55:23.115Z,36.87
2018-11-23T21:57:53.216Z,37.47
2018-11-23T22:00:21.723Z,37.80
2018-11-23T22:02:49.971Z,37.33
2018-11-23T22:05:18.207Z,34.60
2018-11-23T22:07:46.489Z,37.70
2018-11-23T22:10:17.672Z,36.13
2018-11-23T22:12:45.914Z,34.70
2018-11-23T22:15:15.652Z,37.17
2018-11-23T22:17:44.129Z,31.80
2018-11-23T22:20:13.352Z,34.53
2018-11-23T22:22:41.561Z,37.57
2018-11-23T22:25:13.807Z,37.37
2018-11-23T22:27:48.680Z,39.50
2018-11-23T22:30:19.160Z,39.07
2018-11-23T22:32:47.611Z,32.50
2018-11-23T22:35:16.317Z,38.43
2018-11-23T22:37:44.527Z,36.27
2018-11-23T22:40:18.049Z,34.50
2018-11-23T22:42:46.366Z,36.53
2018-11-23T22:45:15.369Z,37.30
2018-11-23T22:47:43.634Z,37.40
2018-11-23T22:50:15.133Z,38.33
2018-11-23T22:52:43.327Z,35.20
2018-11-23T22:55:12.435Z,36.93
2018-11-23T22:57:40.868Z,33.10
2018-11-23T23:00:23.751Z,39.90
2018-11-23T23:02:51.991Z,35.40
2018-11-23T23:05:21.255Z,36.43
2018-11-23T23:07:49.430Z,33.00
2018-11-23T23:10:17.815Z,37.13
2018-11-23T23:12:46.236Z,34.27
2018-11-23T23:15:14.532Z,36.27
2018-11-23T23:17:42.748Z,36.43
2018-11-23T23:20:12.891Z,35.87
2018-11-23T23:22:41.111Z,30.40
2018-11-23T23:25:10.716Z,33.47
2018-11-23T23:27:38.903Z,35.97
2018-11-23T23:30:15.127Z,34.10
2018-11-23T23:32:43.515Z,33.27
2018-11-23T23:35:18.515Z,32.57
2018-11-23T23:37:47.305Z,32.40
2018-11-23T23:40:16.470Z,33.10
2018-11-23T23:42:44.865Z,29.50
2018-11-23T23:45:14.020Z,31.53
2018-11-23T23:47:42.170Z,28.37
2018-11-23T23:50:12.345Z,34.37
2018-11-23T23:52:40.823Z,28.90
2018-11-23T23:55:09.604Z,31.40
2018-11-23T23:57:38.205Z,27.77
